sensor_id;sensor_type;location;lat;lon;timestamp;noise_LAeq;noise_LA_min;noise_LA_max;noise_LA01;noise_LA95
66335;Laerm;53138;51.496;6.410;2023-12-04T00:00:09;32.03;30.46;33.82;;
66335;Laerm;53138;51.496;6.410;2023-12-04T00:00:20;32.22;30.26;37.31;;
66335;Laerm;53138;51.496;6.410;2023-12-04T00:00:30;32.08;30.31;37.19;;
66335;Laerm;53138;51.496;6.410;2023-12-04T00:00:40;32.03;30.23;34.39;;
66335;Laerm;53138;51.496;6.410;2023-12-04T00:00:50;32.11;30.18;38.38;;
66335;Laerm;53138;51.496;6.410;2023-12-04T00:01:01;32.22;30.55;35.17;;
66335;Laerm;53138;51.496;6.410;2023-12-04T00:01:11;32.15;30.37;33.76;;
66335;Laerm;53138;51.496;6.410;2023-12-04T00:01:22;32.22;30.84;33.77;;
66335;Laerm;53138;51.496;6.410;2023-12-04T00:01:32;32.29;30.59;33.77;;
66335;Laerm;53138;51.496;6.410;2023-12-04T00:01:43;32.28;30.82;33.80;;
66335;Laerm;53138;51.496;6.410;2023-12-04T00:01:55;32.56;31.05;34.63;;
66335;Laerm;53138;51.496;6.410;2023-12-04T00:02:05;32.44;30.34;35.14;;
66335;Laerm;53138;51.496;6.410;2023-12-04T00:02:15;32.66;30.80;34.48;;
66335;Laerm;53138;51.496;6.410;2023-12-04T00:02:25;33.16;30.89;36.08;;
66335;Laerm;53138;51.496;6.410;2023-12-04T00:02:35;33.56;31.59;37.03;;
66335;Laerm;53138;51.496;6.410;2023-12-04T00:02:46;33.09;30.81;35.96;;
66335;Laerm;53138;51.496;6.410;2023-12-04T00:02:56;33.23;31.44;36.18;;
66335;Laerm;53138;51.496;6.410;2023-12-04T00:03:06;32.70;30.50;37.83;;
66335;Laerm;53138;51.496;6.410;2023-12-04T00:03:16;34.67;30.97;48.54;;
66335;Laerm;53138;51.496;6.410;2023-12-04T00:03:26;33.73;31.30;40.43;;
66335;Laerm;53138;51.496;6.410;2023-12-04T00:03:37;33.70;31.10;38.63;;
66335;Laerm;53138;51.496;6.410;2023-12-04T00:03:47;32.86;30.89;34.53;;
66335;Laerm;53138;51.496;6.410;2023-12-04T00:03:57;32.55;30.73;34.70;;
66335;Laerm;53138;51.496;6.410;2023-12-04T00:04:07;32.68;30.60;36.61;;
66335;Laerm;53138;51.496;6.410;2023-12-04T00:04:18;32.93;31.14;40.97;;
66335;Laerm;53138;51.496;6.410;2023-12-04T00:04:28;32.58;31.01;35.57;;
66335;Laerm;53138;51.496;6.410;2023-12-04T00:04:38;33.20;30.79;35.31;;
66335;Laerm;53138;51.496;6.410;2023-12-04T00:04:48;34.79;33.08;37.30;;
66335;Laerm;53138;51.496;6.410;2023-12-04T00:04:59;35.45;32.53;52.38;;
66335;Laerm;53138;51.496;6.410;2023-12-04T00:05:09;34.09;31.69;44.68;;
66335;Laerm;53138;51.496;6.410;2023-12-04T00:05:19;34.55;32.59;45.46;;
66335;Laerm;53138;51.496;6.410;2023-12-04T00:05:29;32.79;30.78;35.00;;
66335;Laerm;53138;51.496;6.410;2023-12-04T00:05:42;33.04;30.95;37.09;;
66335;Laerm;53138;51.496;6.410;2023-12-04T00:05:52;33.56;31.62;37.02;;
66335;Laerm;53138;51.496;6.410;2023-12-04T00:06:02;32.92;31.48;34.28;;
66335;Laerm;53138;51.496;6.410;2023-12-04T00:06:12;33.07;31.29;35.07;;
66335;Laerm;53138;51.496;6.410;2023-12-04T00:06:23;33.25;30.80;37.73;;
66335;Laerm;53138;51.496;6.410;2023-12-04T00:06:33;33.73;31.55;36.36;;
66335;Laerm;53138;51.496;6.410;2023-12-04T00:06:43;33.90;31.85;38.35;;
66335;Laerm;53138;51.496;6.410;2023-12-04T00:06:54;32.90;30.48;34.64;;
66335;Laerm;53138;51.496;6.410;2023-12-04T00:07:04;35.03;32.71;39.40;;
66335;Laerm;53138;51.496;6.410;2023-12-04T00:07:14;36.50;33.49;39.83;;
66335;Laerm;53138;51.496;6.410;2023-12-04T00:07:24;36.66;33.97;41.79;;
66335;Laerm;53138;51.496;6.410;2023-12-04T00:07:34;38.69;35.00;44.49;;
66335;Laerm;53138;51.496;6.410;2023-12-04T00:07:45;37.90;34.97;44.53;;
66335;Laerm;53138;51.496;6.410;2023-12-04T00:07:55;35.17;32.39;38.81;;
66335;Laerm;53138;51.496;6.410;2023-12-04T00:08:05;33.94;31.69;36.60;;
66335;Laerm;53138;51.496;6.410;2023-12-04T00:08:15;33.63;31.35;37.78;;
66335;Laerm;53138;51.496;6.410;2023-12-04T00:08:26;33.57;31.54;36.45;;
66335;Laerm;53138;51.496;6.410;2023-12-04T00:08:36;33.68;31.60;35.82;;
66335;Laerm;53138;51.496;6.410;2023-12-04T00:08:46;33.74;31.31;36.25;;
66335;Laerm;53138;51.496;6.410;2023-12-04T00:08:57;33.87;31.34;37.94;;
66335;Laerm;53138;51.496;6.410;2023-12-04T00:09:07;33.76;31.23;36.79;;
66335;Laerm;53138;51.496;6.410;2023-12-04T00:09:17;33.91;31.64;36.61;;
66335;Laerm;53138;51.496;6.410;2023-12-04T00:09:27;33.56;31.48;36.45;;
66335;Laerm;53138;51.496;6.410;2023-12-04T00:09:38;33.55;31.55;37.81;;
66335;Laerm;53138;51.496;6.410;2023-12-04T00:09:48;33.89;31.41;43.34;;
66335;Laerm;53138;51.496;6.410;2023-12-04T00:09:58;33.93;31.46;45.84;;
66335;Laerm;53138;51.496;6.410;2023-12-04T00:10:08;34.33;31.09;46.13;;
66335;Laerm;53138;51.496;6.410;2023-12-04T00:10:19;34.14;31.67;40.05;;
66335;Laerm;53138;51.496;6.410;2023-12-04T00:10:29;33.86;31.26;36.39;;
66335;Laerm;53138;51.496;6.410;2023-12-04T00:10:39;33.77;31.20;45.82;;
66335;Laerm;53138;51.496;6.410;2023-12-04T00:10:49;33.93;31.10;44.91;;
66335;Laerm;53138;51.496;6.410;2023-12-04T00:11:00;32.98;30.51;39.00;;
66335;Laerm;53138;51.496;6.410;2023-12-04T00:11:10;41.99;30.79;56.49;;
66335;Laerm;53138;51.496;6.410;2023-12-04T00:11:21;36.18;30.67;53.79;;
66335;Laerm;53138;51.496;6.410;2023-12-04T00:11:31;32.54;30.49;41.23;;
66335;Laerm;53138;51.496;6.410;2023-12-04T00:11:42;31.85;30.18;33.63;;
66335;Laerm;53138;51.496;6.410;2023-12-04T00:11:52;32.03;30.25;33.96;;
66335;Laerm;53138;51.496;6.410;2023-12-04T00:12:02;31.96;30.49;33.50;;
66335;Laerm;53138;51.496;6.410;2023-12-04T00:12:13;32.17;29.96;37.69;;
66335;Laerm;53138;51.496;6.410;2023-12-04T00:12:23;32.62;30.82;40.73;;
66335;Laerm;53138;51.496;6.410;2023-12-04T00:12:33;32.04;30.43;34.33;;
66335;Laerm;53138;51.496;6.410;2023-12-04T00:12:43;32.09;30.23;37.22;;
66335;Laerm;53138;51.496;6.410;2023-12-04T00:12:54;32.25;30.75;34.71;;
66335;Laerm;53138;51.496;6.410;2023-12-04T00:13:04;32.33;30.67;34.57;;
66335;Laerm;53138;51.496;6.410;2023-12-04T00:13:14;32.19;30.52;33.74;;
66335;Laerm;53138;51.496;6.410;2023-12-04T00:13:24;32.44;30.66;40.19;;
66335;Laerm;53138;51.496;6.410;2023-12-04T00:13:35;32.53;30.87;34.40;;
66335;Laerm;53138;51.496;6.410;2023-12-04T00:13:45;32.31;30.65;34.12;;
66335;Laerm;53138;51.496;6.410;2023-12-04T00:13:55;32.74;30.75;38.49;;
66335;Laerm;53138;51.496;6.410;2023-12-04T00:14:05;32.19;30.73;33.69;;
66335;Laerm;53138;51.496;6.410;2023-12-04T00:14:15;32.17;30.46;34.71;;
66335;Laerm;53138;51.496;6.410;2023-12-04T00:14:26;32.55;30.78;33.96;;
66335;Laerm;53138;51.496;6.410;2023-12-04T00:14:36;32.41;30.23;35.38;;
66335;Laerm;53138;51.496;6.410;2023-12-04T00:14:46;32.31;30.59;35.47;;
66335;Laerm;53138;51.496;6.410;2023-12-04T00:14:56;32.61;30.94;36.08;;
66335;Laerm;53138;51.496;6.410;2023-12-04T00:15:07;32.68;30.43;42.59;;
66335;Laerm;53138;51.496;6.410;2023-12-04T00:15:18;33.26;31.17;41.45;;
66335;Laerm;53138;51.496;6.410;2023-12-04T00:15:29;33.06;30.81;43.77;;
66335;Laerm;53138;51.496;6.410;2023-12-04T00:15:39;32.44;30.81;34.11;;
66335;Laerm;53138;51.496;6.410;2023-12-04T00:15:50;32.44;30.47;34.84;;
66335;Laerm;53138;51.496;6.410;2023-12-04T00:16:00;32.74;31.10;36.33;;
66335;Laerm;53138;51.496;6.410;2023-12-04T00:16:10;33.06;30.97;37.09;;
66335;Laerm;53138;51.496;6.410;2023-12-04T00:16:21;34.37;32.86;36.59;;
66335;Laerm;53138;51.496;6.410;2023-12-04T00:16:33;33.28;31.94;36.92;;
66335;Laerm;53138;51.496;6.410;2023-12-04T00:16:43;32.85;31.42;34.64;;
66335;Laerm;53138;51.496;6.410;2023-12-04T00:16:53;32.95;31.00;38.11;;
66335;Laerm;53138;51.496;6.410;2023-12-04T00:17:03;33.25;31.28;39.38;;
66335;Laerm;53138;51.496;6.410;2023-12-04T00:17:14;35.85;32.49;45.06;;
66335;Laerm;53138;51.496;6.410;2023-12-04T00:17:24;34.81;32.68;37.06;;
66335;Laerm;53138;51.496;6.410;2023-12-04T00:17:34;34.06;32.07;37.21;;
66335;Laerm;53138;51.496;6.410;2023-12-04T00:17:49;35.66;31.92;46.41;;
66335;Laerm;53138;51.496;6.410;2023-12-04T00:17:59;35.67;32.72;43.81;;
66335;Laerm;53138;51.496;6.410;2023-12-04T00:18:09;34.04;32.32;36.64;;
66335;Laerm;53138;51.496;6.410;2023-12-04T00:18:19;34.00;32.48;36.19;;
66335;Laerm;53138;51.496;6.410;2023-12-04T00:18:30;33.80;32.30;35.38;;
66335;Laerm;53138;51.496;6.410;2023-12-04T00:18:40;34.08;32.43;37.17;;
66335;Laerm;53138;51.496;6.410;2023-12-04T00:18:50;33.84;31.55;38.15;;
66335;Laerm;53138;51.496;6.410;2023-12-04T00:19:00;33.36;31.65;35.64;;
66335;Laerm;53138;51.496;6.410;2023-12-04T00:19:10;33.34;31.49;35.52;;
66335;Laerm;53138;51.496;6.410;2023-12-04T00:19:21;33.42;31.68;35.36;;
66335;Laerm;53138;51.496;6.410;2023-12-04T00:19:31;33.67;31.97;36.08;;
66335;Laerm;53138;51.496;6.410;2023-12-04T00:19:41;34.10;31.54;36.59;;
66335;Laerm;53138;51.496;6.410;2023-12-04T00:19:51;33.74;31.88;38.26;;
66335;Laerm;53138;51.496;6.410;2023-12-04T00:20:02;33.66;31.92;37.25;;
66335;Laerm;53138;51.496;6.410;2023-12-04T00:20:12;33.49;31.54;35.94;;
66335;Laerm;53138;51.496;6.410;2023-12-04T00:20:22;33.46;31.62;43.12;;
66335;Laerm;53138;51.496;6.410;2023-12-04T00:20:33;35.93;31.81;49.09;;
66335;Laerm;53138;51.496;6.410;2023-12-04T00:20:43;35.30;32.51;39.72;;
66335;Laerm;53138;51.496;6.410;2023-12-04T00:20:53;34.80;32.28;44.09;;
66335;Laerm;53138;51.496;6.410;2023-12-04T00:21:03;35.30;32.41;40.49;;
66335;Laerm;53138;51.496;6.410;2023-12-04T00:21:14;32.77;31.28;37.58;;
66335;Laerm;53138;51.496;6.410;2023-12-04T00:21:24;32.51;30.74;37.10;;
66335;Laerm;53138;51.496;6.410;2023-12-04T00:21:34;32.37;30.65;34.97;;
66335;Laerm;53138;51.496;6.410;2023-12-04T00:21:44;33.77;31.36;37.39;;
66335;Laerm;53138;51.496;6.410;2023-12-04T00:21:55;34.43;32.62;40.41;;
66335;Laerm;53138;51.496;6.410;2023-12-04T00:22:05;33.49;31.38;35.35;;
66335;Laerm;53138;51.496;6.410;2023-12-04T00:22:15;32.60;31.11;34.80;;
66335;Laerm;53138;51.496;6.410;2023-12-04T00:22:25;32.52;31.05;34.15;;
66335;Laerm;53138;51.496;6.410;2023-12-04T00:22:36;32.83;31.12;35.41;;
66335;Laerm;53138;51.496;6.410;2023-12-04T00:22:46;33.09;31.05;38.62;;
66335;Laerm;53138;51.496;6.410;2023-12-04T00:22:56;35.41;31.64;41.03;;
66335;Laerm;53138;51.496;6.410;2023-12-04T00:23:06;33.79;31.52;38.25;;
66335;Laerm;53138;51.496;6.410;2023-12-04T00:23:17;34.76;31.62;44.43;;
66335;Laerm;53138;51.496;6.410;2023-12-04T00:23:27;34.30;31.38;38.20;;
66335;Laerm;53138;51.496;6.410;2023-12-04T00:23:37;34.33;31.70;39.00;;
66335;Laerm;53138;51.496;6.410;2023-12-04T00:23:47;34.34;32.06;38.92;;
66335;Laerm;53138;51.496;6.410;2023-12-04T00:23:57;33.46;31.04;36.78;;
66335;Laerm;53138;51.496;6.410;2023-12-04T00:24:08;33.29;31.24;35.96;;
66335;Laerm;53138;51.496;6.410;2023-12-04T00:24:18;34.36;32.20;37.20;;
66335;Laerm;53138;51.496;6.410;2023-12-04T00:24:28;33.84;31.94;36.69;;
66335;Laerm;53138;51.496;6.410;2023-12-04T00:24:38;33.74;31.56;35.62;;
66335;Laerm;53138;51.496;6.410;2023-12-04T00:24:49;33.79;31.57;38.93;;
66335;Laerm;53138;51.496;6.410;2023-12-04T00:24:59;33.84;31.57;39.83;;
66335;Laerm;53138;51.496;6.410;2023-12-04T00:25:09;33.77;31.61;35.98;;
66335;Laerm;53138;51.496;6.410;2023-12-04T00:25:19;33.65;31.28;36.45;;
66335;Laerm;53138;51.496;6.410;2023-12-04T00:25:29;34.06;31.16;38.77;;
66335;Laerm;53138;51.496;6.410;2023-12-04T00:25:40;34.08;31.52;38.19;;
66335;Laerm;53138;51.496;6.410;2023-12-04T00:25:50;34.21;32.02;45.06;;
66335;Laerm;53138;51.496;6.410;2023-12-04T00:26:00;33.90;31.77;36.32;;
66335;Laerm;53138;51.496;6.410;2023-12-04T00:26:11;33.72;31.14;36.17;;
66335;Laerm;53138;51.496;6.410;2023-12-04T00:26:21;34.04;31.89;37.23;;
66335;Laerm;53138;51.496;6.410;2023-12-04T00:26:32;33.61;30.73;36.59;;
66335;Laerm;53138;51.496;6.410;2023-12-04T00:26:42;33.91;31.53;35.90;;
66335;Laerm;53138;51.496;6.410;2023-12-04T00:26:52;33.71;31.62;37.75;;
66335;Laerm;53138;51.496;6.410;2023-12-04T00:27:02;34.37;31.87;42.46;;
66335;Laerm;53138;51.496;6.410;2023-12-04T00:27:13;34.69;32.16;44.98;;
66335;Laerm;53138;51.496;6.410;2023-12-04T00:27:23;33.66;31.64;36.47;;
66335;Laerm;53138;51.496;6.410;2023-12-04T00:27:36;33.29;30.61;36.41;;
66335;Laerm;53138;51.496;6.410;2023-12-04T00:27:47;32.35;30.38;39.09;;
66335;Laerm;53138;51.496;6.410;2023-12-04T00:27:57;32.06;30.39;33.75;;
66335;Laerm;53138;51.496;6.410;2023-12-04T00:28:07;32.30;30.47;35.99;;
66335;Laerm;53138;51.496;6.410;2023-12-04T00:28:17;32.19;30.27;34.50;;
66335;Laerm;53138;51.496;6.410;2023-12-04T00:28:28;32.47;30.56;35.37;;
66335;Laerm;53138;51.496;6.410;2023-12-04T00:28:38;32.57;30.73;34.46;;
66335;Laerm;53138;51.496;6.410;2023-12-04T00:28:49;32.86;31.28;34.68;;
66335;Laerm;53138;51.496;6.410;2023-12-04T00:28:59;32.98;31.19;41.76;;
66335;Laerm;53138;51.496;6.410;2023-12-04T00:29:09;33.12;31.13;43.91;;
66335;Laerm;53138;51.496;6.410;2023-12-04T00:29:19;32.55;30.60;35.10;;
66335;Laerm;53138;51.496;6.410;2023-12-04T00:29:30;32.18;30.58;34.15;;
66335;Laerm;53138;51.496;6.410;2023-12-04T00:29:40;32.47;30.78;34.20;;
66335;Laerm;53138;51.496;6.410;2023-12-04T00:29:50;32.62;31.08;34.80;;
66335;Laerm;53138;51.496;6.410;2023-12-04T00:30:00;33.24;30.94;41.63;;
66335;Laerm;53138;51.496;6.410;2023-12-04T00:30:13;34.59;31.19;40.72;;
66335;Laerm;53138;51.496;6.410;2023-12-04T00:30:23;35.18;32.35;41.07;;
66335;Laerm;53138;51.496;6.410;2023-12-04T00:30:34;33.50;31.24;42.57;;
66335;Laerm;53138;51.496;6.410;2023-12-04T00:30:44;32.60;30.94;36.38;;
66335;Laerm;53138;51.496;6.410;2023-12-04T00:30:54;33.11;31.22;40.98;;
66335;Laerm;53138;51.496;6.410;2023-12-04T00:31:04;32.86;30.86;42.89;;
66335;Laerm;53138;51.496;6.410;2023-12-04T00:31:15;32.37;30.82;34.20;;
66335;Laerm;53138;51.496;6.410;2023-12-04T00:31:27;32.42;30.73;33.86;;
66335;Laerm;53138;51.496;6.410;2023-12-04T00:31:37;32.48;30.90;34.36;;
66335;Laerm;53138;51.496;6.410;2023-12-04T00:31:47;32.78;30.26;34.53;;
66335;Laerm;53138;51.496;6.410;2023-12-04T00:31:58;33.52;31.44;37.87;;
66335;Laerm;53138;51.496;6.410;2023-12-04T00:32:08;32.77;30.84;35.97;;
66335;Laerm;53138;51.496;6.410;2023-12-04T00:32:18;32.95;31.14;35.66;;
66335;Laerm;53138;51.496;6.410;2023-12-04T00:32:28;33.57;30.59;47.99;;
66335;Laerm;53138;51.496;6.410;2023-12-04T00:32:38;32.52;30.97;34.46;;
66335;Laerm;53138;51.496;6.410;2023-12-04T00:32:49;33.33;31.49;35.44;;
66335;Laerm;53138;51.496;6.410;2023-12-04T00:32:59;35.56;32.05;40.11;;
66335;Laerm;53138;51.496;6.410;2023-12-04T00:33:09;35.76;32.39;44.16;;
66335;Laerm;53138;51.496;6.410;2023-12-04T00:33:19;33.00;30.94;39.70;;
66335;Laerm;53138;51.496;6.410;2023-12-04T00:33:29;32.59;30.79;36.78;;
66335;Laerm;53138;51.496;6.410;2023-12-04T00:33:40;32.20;30.66;35.61;;
66335;Laerm;53138;51.496;6.410;2023-12-04T00:33:50;32.51;30.53;36.55;;
66335;Laerm;53138;51.496;6.410;2023-12-04T00:34:00;32.43;30.58;34.36;;
66335;Laerm;53138;51.496;6.410;2023-12-04T00:34:10;32.10;30.29;35.14;;
66335;Laerm;53138;51.496;6.410;2023-12-04T00:34:22;32.21;30.39;35.56;;
66335;Laerm;53138;51.496;6.410;2023-12-04T00:34:32;32.42;30.26;36.20;;
66335;Laerm;53138;51.496;6.410;2023-12-04T00:34:42;32.70;30.93;35.31;;
66335;Laerm;53138;51.496;6.410;2023-12-04T00:34:53;32.25;30.75;35.20;;
66335;Laerm;53138;51.496;6.410;2023-12-04T00:35:03;32.04;30.24;33.66;;
66335;Laerm;53138;51.496;6.410;2023-12-04T00:35:13;32.32;30.62;34.73;;
66335;Laerm;53138;51.496;6.410;2023-12-04T00:35:24;32.04;30.66;33.80;;
66335;Laerm;53138;51.496;6.410;2023-12-04T00:35:34;32.53;31.01;35.52;;
66335;Laerm;53138;51.496;6.410;2023-12-04T00:35:44;32.37;30.89;34.35;;
66335;Laerm;53138;51.496;6.410;2023-12-04T00:35:54;32.12;30.30;33.66;;
66335;Laerm;53138;51.496;6.410;2023-12-04T00:36:05;32.50;30.82;37.08;;
66335;Laerm;53138;51.496;6.410;2023-12-04T00:36:15;33.26;31.30;41.41;;
66335;Laerm;53138;51.496;6.410;2023-12-04T00:36:25;32.89;31.10;38.65;;
66335;Laerm;53138;51.496;6.410;2023-12-04T00:36:35;32.39;30.60;37.09;;
66335;Laerm;53138;51.496;6.410;2023-12-04T00:36:45;32.16;30.20;34.07;;
66335;Laerm;53138;51.496;6.410;2023-12-04T00:36:56;32.68;30.95;37.11;;
66335;Laerm;53138;51.496;6.410;2023-12-04T00:37:06;32.69;30.93;37.68;;
66335;Laerm;53138;51.496;6.410;2023-12-04T00:37:16;32.62;31.14;34.27;;
66335;Laerm;53138;51.496;6.410;2023-12-04T00:37:26;32.46;30.90;34.06;;
66335;Laerm;53138;51.496;6.410;2023-12-04T00:37:37;32.75;30.98;34.03;;
66335;Laerm;53138;51.496;6.410;2023-12-04T00:37:48;32.26;30.82;33.59;;
66335;Laerm;53138;51.496;6.410;2023-12-04T00:37:58;32.59;31.07;34.27;;
66335;Laerm;53138;51.496;6.410;2023-12-04T00:38:09;32.57;31.04;34.08;;
66335;Laerm;53138;51.496;6.410;2023-12-04T00:38:19;32.33;30.75;34.93;;
66335;Laerm;53138;51.496;6.410;2023-12-04T00:38:29;31.93;30.36;33.96;;
66335;Laerm;53138;51.496;6.410;2023-12-04T00:38:39;32.23;30.31;36.21;;
66335;Laerm;53138;51.496;6.410;2023-12-04T00:38:50;32.13;30.64;37.87;;
66335;Laerm;53138;51.496;6.410;2023-12-04T00:39:00;32.92;30.53;35.70;;
66335;Laerm;53138;51.496;6.410;2023-12-04T00:39:10;33.55;31.59;38.97;;
66335;Laerm;53138;51.496;6.410;2023-12-04T00:39:20;33.34;31.94;35.36;;
66335;Laerm;53138;51.496;6.410;2023-12-04T00:39:31;33.46;31.59;35.70;;
66335;Laerm;53138;51.496;6.410;2023-12-04T00:39:41;33.78;32.14;38.02;;
66335;Laerm;53138;51.496;6.410;2023-12-04T00:39:51;33.89;31.79;35.87;;
66335;Laerm;53138;51.496;6.410;2023-12-04T00:40:01;34.15;32.10;36.26;;
66335;Laerm;53138;51.496;6.410;2023-12-04T00:40:12;34.03;31.63;36.33;;
66335;Laerm;53138;51.496;6.410;2023-12-04T00:40:22;34.45;32.34;36.38;;
66335;Laerm;53138;51.496;6.410;2023-12-04T00:40:33;34.58;32.80;37.14;;
66335;Laerm;53138;51.496;6.410;2023-12-04T00:40:43;34.43;31.90;36.98;;
66335;Laerm;53138;51.496;6.410;2023-12-04T00:40:53;34.20;31.99;36.39;;
66335;Laerm;53138;51.496;6.410;2023-12-04T00:41:03;34.51;32.28;37.87;;
66335;Laerm;53138;51.496;6.410;2023-12-04T00:41:15;34.36;32.24;37.39;;
66335;Laerm;53138;51.496;6.410;2023-12-04T00:41:25;34.46;32.24;37.19;;
66335;Laerm;53138;51.496;6.410;2023-12-04T00:41:35;34.88;32.55;38.32;;
66335;Laerm;53138;51.496;6.410;2023-12-04T00:41:45;34.65;31.87;37.34;;
66335;Laerm;53138;51.496;6.410;2023-12-04T00:41:56;34.74;32.60;38.14;;
66335;Laerm;53138;51.496;6.410;2023-12-04T00:42:06;34.02;31.54;36.86;;
66335;Laerm;53138;51.496;6.410;2023-12-04T00:42:16;33.64;30.89;35.98;;
66335;Laerm;53138;51.496;6.410;2023-12-04T00:42:26;33.57;31.31;37.07;;
66335;Laerm;53138;51.496;6.410;2023-12-04T00:42:36;33.66;31.81;36.03;;
66335;Laerm;53138;51.496;6.410;2023-12-04T00:42:47;33.79;31.69;36.30;;
66335;Laerm;53138;51.496;6.410;2023-12-04T00:42:57;33.77;31.86;42.10;;
66335;Laerm;53138;51.496;6.410;2023-12-04T00:43:08;33.73;31.47;36.81;;
66335;Laerm;53138;51.496;6.410;2023-12-04T00:43:18;33.91;31.67;36.79;;
66335;Laerm;53138;51.496;6.410;2023-12-04T00:43:29;32.59;30.93;35.92;;
66335;Laerm;53138;51.496;6.410;2023-12-04T00:43:39;32.14;30.62;33.92;;
66335;Laerm;53138;51.496;6.410;2023-12-04T00:43:49;32.17;30.23;35.14;;
66335;Laerm;53138;51.496;6.410;2023-12-04T00:43:59;32.25;30.66;33.98;;
66335;Laerm;53138;51.496;6.410;2023-12-04T00:44:09;32.18;30.12;33.67;;
66335;Laerm;53138;51.496;6.410;2023-12-04T00:44:20;32.26;30.34;34.08;;
66335;Laerm;53138;51.496;6.410;2023-12-04T00:44:30;32.52;30.99;35.69;;
66335;Laerm;53138;51.496;6.410;2023-12-04T00:44:40;32.51;30.73;34.57;;
66335;Laerm;53138;51.496;6.410;2023-12-04T00:44:50;33.39;31.48;36.42;;
66335;Laerm;53138;51.496;6.410;2023-12-04T00:45:01;32.99;31.11;35.30;;
66335;Laerm;53138;51.496;6.410;2023-12-04T00:45:12;32.71;30.86;34.42;;
66335;Laerm;53138;51.496;6.410;2023-12-04T00:45:22;33.40;31.00;47.88;;
66335;Laerm;53138;51.496;6.410;2023-12-04T00:45:32;32.90;31.43;34.68;;
66335;Laerm;53138;51.496;6.410;2023-12-04T00:45:42;34.17;31.22;38.71;;
66335;Laerm;53138;51.496;6.410;2023-12-04T00:45:52;34.73;31.87;43.91;;
66335;Laerm;53138;51.496;6.410;2023-12-04T00:46:03;34.82;31.67;45.28;;
66335;Laerm;53138;51.496;6.410;2023-12-04T00:46:13;33.04;31.15;34.85;;
66335;Laerm;53138;51.496;6.410;2023-12-04T00:46:23;33.17;31.63;35.07;;
66335;Laerm;53138;51.496;6.410;2023-12-04T00:46:33;33.45;31.58;37.66;;
66335;Laerm;53138;51.496;6.410;2023-12-04T00:46:43;33.38;31.76;35.24;;
66335;Laerm;53138;51.496;6.410;2023-12-04T00:46:54;33.05;31.03;39.90;;
66335;Laerm;53138;51.496;6.410;2023-12-04T00:47:04;32.64;31.54;34.11;;
66335;Laerm;53138;51.496;6.410;2023-12-04T00:47:14;33.69;31.18;43.04;;
66335;Laerm;53138;51.496;6.410;2023-12-04T00:47:24;32.96;31.28;36.61;;
66335;Laerm;53138;51.496;6.410;2023-12-04T00:47:34;33.15;31.01;40.23;;
66335;Laerm;53138;51.496;6.410;2023-12-04T00:47:45;32.63;30.77;35.84;;
66335;Laerm;53138;51.496;6.410;2023-12-04T00:47:55;32.72;31.24;40.32;;
66335;Laerm;53138;51.496;6.410;2023-12-04T00:48:05;32.63;30.96;35.65;;
66335;Laerm;53138;51.496;6.410;2023-12-04T00:48:15;32.53;30.87;36.24;;
66335;Laerm;53138;51.496;6.410;2023-12-04T00:48:26;32.67;30.84;39.32;;
66335;Laerm;53138;51.496;6.410;2023-12-04T00:48:36;32.41;30.89;36.37;;
66335;Laerm;53138;51.496;6.410;2023-12-04T00:48:46;33.87;30.92;46.01;;
66335;Laerm;53138;51.496;6.410;2023-12-04T00:48:56;33.73;30.90;50.44;;
66335;Laerm;53138;51.496;6.410;2023-12-04T00:49:06;33.42;31.51;39.48;;
66335;Laerm;53138;51.496;6.410;2023-12-04T00:49:17;32.89;31.06;35.24;;
66335;Laerm;53138;51.496;6.410;2023-12-04T00:49:27;32.77;31.17;36.34;;
66335;Laerm;53138;51.496;6.410;2023-12-04T00:49:37;33.90;31.44;46.89;;
66335;Laerm;53138;51.496;6.410;2023-12-04T00:49:48;34.19;31.16;49.58;;
66335;Laerm;53138;51.496;6.410;2023-12-04T00:49:58;33.19;31.31;37.56;;
66335;Laerm;53138;51.496;6.410;2023-12-04T00:50:08;32.63;30.93;35.74;;
66335;Laerm;53138;51.496;6.410;2023-12-04T00:50:18;32.83;31.20;38.16;;
66335;Laerm;53138;51.496;6.410;2023-12-04T00:50:29;32.70;31.16;34.92;;
66335;Laerm;53138;51.496;6.410;2023-12-04T00:50:39;33.55;31.17;45.31;;
66335;Laerm;53138;51.496;6.410;2023-12-04T00:50:50;34.31;32.06;43.17;;
66335;Laerm;53138;51.496;6.410;2023-12-04T00:51:00;34.44;31.13;39.46;;
66335;Laerm;53138;51.496;6.410;2023-12-04T00:51:11;33.26;31.46;35.29;;
66335;Laerm;53138;51.496;6.410;2023-12-04T00:51:21;33.63;31.93;43.50;;
66335;Laerm;53138;51.496;6.410;2023-12-04T00:51:38;32.77;30.68;37.62;;
66335;Laerm;53138;51.496;6.410;2023-12-04T00:51:48;32.60;30.67;39.53;;
66335;Laerm;53138;51.496;6.410;2023-12-04T00:51:59;34.28;31.15;50.77;;
66335;Laerm;53138;51.496;6.410;2023-12-04T00:52:09;32.77;30.84;36.79;;
66335;Laerm;53138;51.496;6.410;2023-12-04T00:52:19;32.48;30.55;37.58;;
66335;Laerm;53138;51.496;6.410;2023-12-04T00:52:29;32.31;30.70;37.07;;
66335;Laerm;53138;51.496;6.410;2023-12-04T00:52:40;32.43;30.38;36.86;;
66335;Laerm;53138;51.496;6.410;2023-12-04T00:52:50;32.61;30.63;35.89;;
66335;Laerm;53138;51.496;6.410;2023-12-04T00:53:00;32.61;30.79;36.86;;
66335;Laerm;53138;51.496;6.410;2023-12-04T00:53:11;32.39;30.85;34.70;;
66335;Laerm;53138;51.496;6.410;2023-12-04T00:53:21;33.37;30.83;44.85;;
66335;Laerm;53138;51.496;6.410;2023-12-04T00:53:31;32.66;31.02;35.55;;
66335;Laerm;53138;51.496;6.410;2023-12-04T00:53:41;32.80;31.31;36.72;;
66335;Laerm;53138;51.496;6.410;2023-12-04T00:53:52;32.93;30.64;37.37;;
66335;Laerm;53138;51.496;6.410;2023-12-04T00:54:03;32.66;30.86;34.73;;
66335;Laerm;53138;51.496;6.410;2023-12-04T00:54:13;32.66;30.70;34.45;;
66335;Laerm;53138;51.496;6.410;2023-12-04T00:54:23;32.43;30.44;35.87;;
66335;Laerm;53138;51.496;6.410;2023-12-04T00:54:33;32.39;30.61;34.20;;
66335;Laerm;53138;51.496;6.410;2023-12-04T00:54:44;32.86;30.98;40.19;;
66335;Laerm;53138;51.496;6.410;2023-12-04T00:54:54;34.24;31.01;45.10;;
66335;Laerm;53138;51.496;6.410;2023-12-04T00:55:04;34.23;32.45;37.59;;
66335;Laerm;53138;51.496;6.410;2023-12-04T00:55:14;34.30;31.99;37.54;;
66335;Laerm;53138;51.496;6.410;2023-12-04T00:55:25;33.99;32.06;36.19;;
66335;Laerm;53138;51.496;6.410;2023-12-04T00:55:35;33.89;31.25;36.06;;
66335;Laerm;53138;51.496;6.410;2023-12-04T00:55:45;33.83;31.20;36.47;;
66335;Laerm;53138;51.496;6.410;2023-12-04T00:55:55;34.51;31.83;48.36;;
66335;Laerm;53138;51.496;6.410;2023-12-04T00:56:05;33.82;31.80;36.40;;
66335;Laerm;53138;51.496;6.410;2023-12-04T00:56:16;33.97;31.68;37.39;;
66335;Laerm;53138;51.496;6.410;2023-12-04T00:56:26;34.13;31.90;36.94;;
66335;Laerm;53138;51.496;6.410;2023-12-04T00:56:39;34.32;31.92;37.10;;
66335;Laerm;53138;51.496;6.410;2023-12-04T00:56:50;34.06;31.73;36.62;;
66335;Laerm;53138;51.496;6.410;2023-12-04T00:57:00;34.07;31.96;36.40;;
66335;Laerm;53138;51.496;6.410;2023-12-04T00:57:10;33.71;31.11;36.62;;
66335;Laerm;53138;51.496;6.410;2023-12-04T00:57:20;33.59;31.26;36.18;;
66335;Laerm;53138;51.496;6.410;2023-12-04T00:57:31;34.55;31.22;47.67;;
66335;Laerm;53138;51.496;6.410;2023-12-04T00:57:41;33.81;31.57;36.32;;
66335;Laerm;53138;51.496;6.410;2023-12-04T00:57:51;32.88;30.80;36.04;;
66335;Laerm;53138;51.496;6.410;2023-12-04T00:58:02;32.73;30.79;42.56;;